Time;durP1;ratioP1;P1;durP2;ratioP2;P2;SDS_P1;SDS_P2;PMS_P1;PMS_P2;Temp;Humidity;BMP_temperature;BMP_pressure;BME280_temperature;BME280_humidity;BME280_pressure;Samples;Min_cycle;Max_cycle;Signal;HPM_P1;HPM_P2
2024/02/09 00:00:54;;;;;;;11.97;3.53;;;14.20;99.90;;;;;;5014176;28;20454;-68
2024/02/09 00:03:25;;;;;;;17.23;4.23;;;14.20;99.90;;;;;;5013799;28;20415;-68
2024/02/09 00:05:52;;;;;;;11.87;4.83;;;14.20;99.90;;;;;;5013601;28;20466;-68
2024/02/09 00:08:19;;;;;;;18.37;4.97;;;14.20;99.90;;;;;;5009916;28;20435;-68
2024/02/09 00:10:47;;;;;;;12.03;4.83;;;14.10;99.90;;;;;;5013568;28;20439;-68
2024/02/09 00:13:14;;;;;;;19.57;4.50;;;14.00;99.90;;;;;;5017832;28;20438;-68
2024/02/09 00:15:41;;;;;;;14.50;4.33;;;14.00;99.90;;;;;;5017748;28;20435;-68
2024/02/09 00:18:06;;;;;;;9.60;4.00;;;13.90;99.90;;;;;;5016921;28;20445;-68
2024/02/09 00:20:32;;;;;;;16.47;5.77;;;13.90;99.90;;;;;;5010785;28;20423;-68
2024/02/09 00:22:58;;;;;;;8.40;4.37;;;13.90;99.90;;;;;;5016938;28;20264;-68
2024/02/09 00:25:23;;;;;;;8.00;4.40;;;13.80;99.90;;;;;;5010679;28;20223;-68
2024/02/09 00:27:49;;;;;;;17.63;5.23;;;13.80;99.90;;;;;;5013943;28;20615;-68
2024/02/09 00:30:14;;;;;;;9.60;3.70;;;13.80;99.90;;;;;;5012765;28;20177;-68
2024/02/09 00:32:40;;;;;;;8.40;4.93;;;13.70;99.90;;;;;;5012391;28;20275;-68
2024/02/09 00:35:07;;;;;;;11.80;4.53;;;13.70;99.90;;;;;;5014334;28;21082;-68
2024/02/09 00:37:33;;;;;;;14.20;4.33;;;13.70;99.90;;;;;;5012876;28;20242;-68
2024/02/09 00:39:59;;;;;;;7.20;3.70;;;13.60;99.90;;;;;;5014601;28;20431;-68
2024/02/09 00:42:24;;;;;;;12.90;3.83;;;13.60;99.90;;;;;;5011855;28;20222;-68
2024/02/09 00:44:50;;;;;;;13.40;4.60;;;13.50;99.90;;;;;;5017172;28;20357;-68
2024/02/09 00:47:16;;;;;;;12.20;4.47;;;13.50;99.90;;;;;;5018187;28;20275;-68
2024/02/09 00:49:45;;;;;;;9.73;4.63;;;13.50;99.90;;;;;;5010977;28;20493;-68
2024/02/09 00:52:11;;;;;;;12.13;5.13;;;13.50;99.90;;;;;;5012174;28;20868;-68
2024/02/09 00:54:38;;;;;;;9.80;4.07;;;13.50;99.90;;;;;;5013646;28;20459;-68
2024/02/09 00:57:05;;;;;;;10.87;4.27;;;13.40;99.90;;;;;;5015427;28;20443;-68
2024/02/09 00:59:31;;;;;;;10.27;4.97;;;13.30;99.90;;;;;;5011498;28;20423;-68
2024/02/09 01:01:58;;;;;;;9.30;4.53;;;13.30;99.90;;;;;;5013806;28;20419;-68
2024/02/09 01:04:28;;;;;;;8.50;4.20;;;13.30;99.90;;;;;;5015210;28;20447;-68
2024/02/09 01:06:55;;;;;;;13.27;4.53;;;13.20;99.90;;;;;;5013737;28;20545;-68
2024/02/09 01:09:22;;;;;;;11.43;4.70;;;13.20;99.90;;;;;;5015734;28;20423;-68
2024/02/09 01:11:48;;;;;;;14.47;4.47;;;13.20;99.90;;;;;;5013151;28;20454;-68
2024/02/09 02:45:01;;;;;;;12.00;4.00;;;12.60;99.90;;;;;;5011050;28;20460;-68
2024/02/09 02:47:27;;;;;;;13.03;4.47;;;12.60;99.90;;;;;;5012135;28;20252;-68
2024/02/09 03:06:17;;;;;;;8.67;3.53;;;12.70;99.90;;;;;;5014220;28;20948;-68
2024/02/09 03:08:43;;;;;;;7.10;4.17;;;12.70;99.90;;;;;;5010632;28;20460;-68
2024/02/09 03:11:09;;;;;;;7.17;3.93;;;12.70;99.90;;;;;;5013076;28;20204;-68
2024/02/09 03:13:34;;;;;;;8.13;4.50;;;12.70;99.90;;;;;;5011543;28;20289;-68
2024/02/09 03:16:00;;;;;;;8.70;4.47;;;12.80;99.90;;;;;;4972928;28;1067175;-68
2024/02/09 03:18:26;;;;;;;9.97;4.20;;;12.80;99.90;;;;;;5013919;28;20651;-68
2024/02/09 03:20:55;;;;;;;7.23;3.57;;;12.80;99.90;;;;;;5014103;28;21146;-68
2024/02/09 03:23:21;;;;;;;9.70;3.53;;;12.80;99.90;;;;;;5014548;28;20478;-68
2024/02/09 03:25:48;;;;;;;9.73;4.00;;;12.80;99.90;;;;;;5014435;28;20498;-68
2024/02/09 03:28:14;;;;;;;11.27;3.90;;;12.80;99.90;;;;;;5017578;28;20586;-68
2024/02/09 03:30:40;;;;;;;13.40;4.33;;;12.80;99.90;;;;;;5014236;28;20439;-68
2024/02/09 03:33:06;;;;;;;11.23;4.37;;;12.80;99.90;;;;;;5016591;28;20525;-68
2024/02/09 03:35:31;;;;;;;6.47;5.57;;;12.90;99.90;;;;;;5017726;28;20193;-68
2024/02/09 03:37:58;;;;;;;10.43;4.27;;;12.90;99.90;;;;;;5017343;28;20184;-68
2024/02/09 03:40:23;;;;;;;8.60;3.93;;;12.90;99.90;;;;;;5012716;28;20632;-68
2024/02/09 03:42:49;;;;;;;14.40;5.53;;;12.90;99.90;;;;;;5018955;28;20450;-68
2024/02/09 03:45:14;;;;;;;8.30;4.43;;;12.90;99.90;;;;;;5013623;28;20219;-68
2024/02/09 03:47:40;;;;;;;11.30;4.00;;;12.90;99.90;;;;;;5012840;28;20217;-68
2024/02/09 03:50:06;;;;;;;8.80;4.47;;;12.90;99.90;;;;;;5011846;28;20188;-68
2024/02/09 03:52:32;;;;;;;12.07;4.90;;;12.90;99.90;;;;;;5015331;28;20185;-69
2024/02/09 03:54:57;;;;;;;10.80;4.73;;;12.90;99.90;;;;;;5019557;28;20428;-68
2024/02/09 03:57:25;;;;;;;11.00;4.30;;;12.90;99.90;;;;;;5011716;28;20176;-68
2024/02/09 03:59:51;;;;;;;7.70;4.50;;;12.90;99.90;;;;;;5014678;28;20279;-68
2024/02/09 04:02:18;;;;;;;6.77;4.40;;;12.90;99.90;;;;;;5018767;28;20774;-68
2024/02/09 04:04:44;;;;;;;12.63;5.43;;;12.90;99.90;;;;;;5010570;28;20803;-68
2024/02/09 04:07:10;;;;;;;14.80;4.20;;;12.90;99.90;;;;;;5031974;28;20466;-68
2024/02/09 04:09:37;;;;;;;11.83;4.80;;;12.90;99.90;;;;;;5015981;28;20177;-68
2024/02/09 04:12:03;;;;;;;10.67;4.43;;;12.90;99.90;;;;;;5013593;28;22151;-68
2024/02/09 04:14:29;;;;;;;10.33;4.20;;;12.90;99.90;;;;;;5011441;28;21031;-68
2024/02/09 04:16:55;;;;;;;12.83;5.30;;;12.90;99.90;;;;;;5010938;28;20448;-68
2024/02/09 04:19:22;;;;;;;10.20;4.80;;;12.90;99.90;;;;;;5013054;28;20440;-68
2024/02/09 04:21:47;;;;;;;7.80;3.90;;;13.00;99.90;;;;;;5013207;28;20944;-68
2024/02/09 04:24:19;;;;;;;8.57;4.67;;;12.90;99.90;;;;;;5014985;28;20440;-68
2024/02/09 04:26:45;;;;;;;10.53;5.30;;;13.00;99.90;;;;;;5015146;28;20648;-68
2024/02/09 04:29:15;;;;;;;9.70;5.03;;;12.90;99.90;;;;;;5017374;28;20458;-68
2024/02/09 04:31:47;;;;;;;11.63;5.07;;;12.90;99.90;;;;;;5014286;28;20493;-67
2024/02/09 04:34:13;;;;;;;15.83;5.27;;;12.90;99.90;;;;;;5014449;28;20461;-68
2024/02/09 04:36:40;;;;;;;13.23;6.70;;;12.90;99.90;;;;;;5016651;28;20436;-68
2024/02/09 04:39:12;;;;;;;11.93;4.43;;;12.90;99.90;;;;;;5017531;28;20515;-68
2024/02/09 04:41:41;;;;;;;9.17;4.70;;;12.90;99.90;;;;;;5014029;28;20915;-68
2024/02/09 04:44:06;;;;;;;12.37;5.37;;;12.90;99.90;;;;;;5009295;28;20440;-68
2024/02/09 04:46:32;;;;;;;13.10;4.87;;;12.90;99.90;;;;;;5013816;28;20455;-68
2024/02/09 04:49:06;;;;;;;12.33;5.57;;;12.90;99.90;;;;;;5013356;28;20698;-68
2024/02/09 04:51:33;;;;;;;12.80;5.27;;;12.90;99.90;;;;;;5016438;28;20429;-67
2024/02/09 04:53:59;;;;;;;11.33;4.70;;;12.80;99.90;;;;;;5012287;28;20513;-67
2024/02/09 04:56:29;;;;;;;11.10;4.83;;;12.90;99.90;;;;;;5021239;28;20435;-68
2024/02/09 04:58:58;;;;;;;10.20;4.47;;;12.90;99.90;;;;;;5013677;28;20412;-68
2024/02/09 05:01:27;;;;;;;12.43;5.03;;;12.80;99.90;;;;;;5013190;28;20418;-67
2024/02/09 05:03:57;;;;;;;8.87;4.70;;;12.80;99.90;;;;;;5012448;28;20571;-68
2024/02/09 05:06:24;;;;;;;11.70;4.43;;;12.80;99.90;;;;;;5014189;28;20542;-67
2024/02/09 05:08:49;;;;;;;14.70;5.73;;;12.90;99.90;;;;;;5014423;28;20871;-67
2024/02/09 05:11:15;;;;;;;13.23;5.33;;;12.80;99.90;;;;;;5015898;28;20507;-68
2024/02/09 05:13:41;;;;;;;18.43;5.77;;;12.80;99.90;;;;;;5014592;28;20263;-67
2024/02/09 05:16:09;;;;;;;8.93;5.07;;;12.80;99.90;;;;;;5013277;28;20628;-68
2024/02/09 05:18:35;;;;;;;13.10;6.00;;;12.80;99.90;;;;;;5010726;28;20459;-68
2024/02/09 05:21:01;;;;;;;15.80;5.03;;;12.80;99.90;;;;;;5012893;28;20458;-68
2024/02/09 05:23:27;;;;;;;12.30;5.43;;;12.80;99.90;;;;;;5007378;28;20196;-68
2024/02/09 05:25:53;;;;;;;10.07;5.10;;;12.80;99.90;;;;;;5014646;28;20568;-68
2024/02/09 05:28:18;;;;;;;11.17;4.90;;;12.80;99.90;;;;;;5019069;28;20260;-67
2024/02/09 05:30:44;;;;;;;13.47;4.73;;;12.80;99.90;;;;;;5018660;28;20191;-67
2024/02/09 05:33:10;;;;;;;13.60;5.53;;;12.80;99.90;;;;;;5018061;28;20188;-67
2024/02/09 05:35:38;;;;;;;10.90;4.63;;;12.80;99.90;;;;;;5017506;28;20188;-67
2024/02/09 05:38:06;;;;;;;14.73;5.57;;;12.80;99.90;;;;;;5012287;28;20416;-67
2024/02/09 05:40:32;;;;;;;14.97;5.50;;;12.90;99.90;;;;;;5013107;28;20419;-68
2024/02/09 05:43:00;;;;;;;11.93;4.80;;;12.80;99.90;;;;;;5015003;28;20407;-68
2024/02/09 05:45:26;;;;;;;8.70;5.70;;;12.90;99.90;;;;;;5013424;28;20291;-68
2024/02/09 05:47:52;;;;;;;14.27;5.80;;;12.90;99.90;;;;;;5015472;28;20419;-68
2024/02/09 05:50:21;;;;;;;18.77;5.30;;;12.90;99.90;;;;;;5010977;28;20900;-68
2024/02/09 05:52:49;;;;;;;11.47;4.80;;;12.90;99.90;;;;;;5014017;28;20449;-67
2024/02/09 05:55:15;;;;;;;10.13;5.27;;;12.90;99.90;;;;;;5015333;28;20945;-65
2024/02/09 05:57:42;;;;;;;11.57;5.30;;;12.90;99.90;;;;;;5016516;28;20427;-68
2024/02/09 06:00:14;;;;;;;11.60;5.63;;;12.90;99.90;;;;;;5011268;28;20576;-67
2024/02/09 06:02:40;;;;;;;6.80;4.17;;;12.90;99.90;;;;;;5012320;28;20411;-68
2024/02/09 06:05:06;;;;;;;7.80;5.20;;;12.80;99.90;;;;;;5015002;28;20553;-67
2024/02/09 06:07:33;;;;;;;10.83;3.90;;;12.80;99.90;;;;;;5011425;28;20564;-67
2024/02/09 06:10:02;;;;;;;7.43;4.17;;;12.80;99.90;;;;;;5016545;28;20180;-67
2024/02/09 06:12:28;;;;;;;8.53;4.90;;;12.80;99.90;;;;;;5012603;28;20431;-67
2024/02/09 06:14:59;;;;;;;9.50;5.30;;;12.70;99.90;;;;;;5015111;28;20438;-68
2024/02/09 06:17:25;;;;;;;15.40;5.23;;;12.70;99.90;;;;;;5017717;28;20199;-68
2024/02/09 06:19:51;;;;;;;10.50;4.40;;;12.70;99.90;;;;;;5019312;28;20521;-68
2024/02/09 06:22:17;;;;;;;9.90;4.93;;;12.70;99.90;;;;;;5013900;28;20439;-67
2024/02/09 06:24:42;;;;;;;11.30;5.33;;;12.80;99.90;;;;;;5011246;28;20355;-67
2024/02/09 06:27:08;;;;;;;6.63;4.60;;;12.80;99.90;;;;;;5012243;28;20761;-68
2024/02/09 06:29:33;;;;;;;13.73;4.27;;;12.70;99.90;;;;;;5020278;28;20263;-68
2024/02/09 06:31:59;;;;;;;8.67;4.00;;;12.60;99.90;;;;;;5016219;28;20296;-68
2024/02/09 06:34:24;;;;;;;10.80;4.50;;;12.60;99.90;;;;;;5016710;28;20544;-68
2024/02/09 06:36:50;;;;;;;7.90;4.13;;;12.70;99.90;;;;;;5015900;28;20181;-68
2024/02/09 06:39:16;;;;;;;13.00;4.37;;;12.60;99.90;;;;;;5013910;28;20614;-68
2024/02/09 06:41:42;;;;;;;6.43;4.03;;;12.60;99.90;;;;;;5010443;28;22047;-68
2024/02/09 06:44:07;;;;;;;8.77;4.13;;;12.60;99.90;;;;;;5010266;28;20213;-68
2024/02/09 06:46:33;;;;;;;7.63;4.17;;;12.60;99.90;;;;;;5020826;28;20467;-68
2024/02/09 06:49:00;;;;;;;8.00;4.20;;;12.70;99.90;;;;;;5016399;28;20176;-68
2024/02/09 06:51:27;;;;;;;6.93;3.33;;;12.80;99.90;;;;;;5017246;28;20264;-68
2024/02/09 06:53:55;;;;;;;9.83;3.87;;;12.70;99.90;;;;;;5014997;28;20902;-68
2024/02/09 06:56:22;;;;;;;6.30;3.80;;;12.70;99.90;;;;;;5013923;28;20569;-68
2024/02/09 06:58:50;;;;;;;7.40;3.60;;;12.70;99.90;;;;;;5010958;28;20416;-68
2024/02/09 07:01:15;;;;;;;9.00;4.23;;;12.70;99.90;;;;;;5016848;28;20450;-68
2024/02/09 07:03:41;;;;;;;10.70;4.10;;;12.80;99.90;;;;;;5014631;28;20941;-68
2024/02/09 07:06:07;;;;;;;9.07;4.13;;;12.80;99.90;;;;;;5016017;28;20667;-68
2024/02/09 07:08:39;;;;;;;7.50;4.40;;;12.80;99.90;;;;;;5016212;28;20181;-68
2024/02/09 07:11:07;;;;;;;7.50;3.67;;;12.80;99.90;;;;;;5012366;28;20423;-68
2024/02/09 07:13:34;;;;;;;8.53;4.67;;;12.80;99.90;;;;;;5014938;28;20428;-68
2024/02/09 07:16:02;;;;;;;7.90;4.80;;;12.80;99.90;;;;;;5017286;28;20480;-68
2024/02/09 07:18:30;;;;;;;9.93;4.37;;;12.80;99.90;;;;;;5013731;28;20439;-68
2024/02/09 07:20:56;;;;;;;8.60;4.03;;;12.80;99.90;;;;;;5014371;28;20824;-68
2024/02/09 07:23:21;;;;;;;9.57;4.80;;;12.80;99.90;;;;;;5009256;28;20414;-69
2024/02/09 07:25:47;;;;;;;10.60;3.73;;;12.90;99.90;;;;;;5016313;28;20234;-68
2024/02/09 07:28:13;;;;;;;9.63;3.87;;;12.80;99.90;;;;;;5011984;28;20181;-68
2024/02/09 07:30:39;;;;;;;8.20;3.70;;;12.90;99.90;;;;;;5010867;28;20213;-68
2024/02/09 07:33:04;;;;;;;6.80;3.63;;;12.90;99.90;;;;;;5012098;28;20448;-68
2024/02/09 07:35:30;;;;;;;7.70;3.73;;;12.90;99.90;;;;;;5013467;28;21056;-68
2024/02/09 07:37:57;;;;;;;11.73;4.00;;;12.90;99.90;;;;;;5011324;28;20178;-68
2024/02/09 07:40:23;;;;;;;13.57;4.27;;;13.00;99.90;;;;;;5009589;28;20268;-68
2024/02/09 07:42:49;;;;;;;6.13;3.33;;;13.00;99.90;;;;;;5017378;28;20878;-68
2024/02/09 07:45:16;;;;;;;5.47;3.20;;;13.00;99.90;;;;;;5010530;28;20558;-68
2024/02/09 07:47:44;;;;;;;8.13;2.83;;;13.10;99.90;;;;;;5015073;28;20558;-68
2024/02/09 07:50:11;;;;;;;9.43;3.87;;;13.20;99.90;;;;;;5019243;28;20473;-68
2024/02/09 07:52:38;;;;;;;9.07;3.00;;;13.30;99.90;;;;;;5016399;28;20427;-68
2024/02/09 07:55:07;;;;;;;6.73;3.23;;;13.30;99.90;;;;;;5015691;28;20771;-68
2024/02/09 07:57:33;;;;;;;10.60;3.40;;;13.30;99.90;;;;;;5011066;28;20488;-68
2024/02/09 07:59:59;;;;;;;10.33;4.23;;;13.40;99.90;;;;;;5013030;28;20494;-68
2024/02/09 08:02:26;;;;;;;6.90;3.67;;;13.40;99.90;;;;;;5014774;28;20928;-68
2024/02/09 08:04:51;;;;;;;7.33;3.80;;;13.40;99.90;;;;;;5014779;28;20252;-68
2024/02/09 08:07:20;;;;;;;5.70;3.20;;;13.50;99.90;;;;;;5017711;28;20876;-68
2024/02/09 08:09:46;;;;;;;5.60;2.70;;;13.50;99.90;;;;;;5014341;28;20648;-68
2024/02/09 08:12:13;;;;;;;8.13;3.70;;;13.50;99.90;;;;;;5015622;28;20485;-68
2024/02/09 08:14:39;;;;;;;4.27;3.03;;;13.40;99.90;;;;;;5012681;28;20764;-68
2024/02/09 08:17:05;;;;;;;10.97;3.37;;;13.40;99.90;;;;;;5011096;28;20447;-68
2024/02/09 08:19:34;;;;;;;5.90;3.10;;;13.50;99.90;;;;;;5013916;28;20422;-68
2024/02/09 08:22:00;;;;;;;4.80;2.63;;;13.60;99.90;;;;;;5017544;28;20424;-68
2024/02/09 08:24:25;;;;;;;8.43;3.30;;;13.60;99.90;;;;;;5013024;28;20464;-68
2024/02/09 08:26:51;;;;;;;6.60;3.60;;;13.60;99.90;;;;;;5009539;28;20216;-68
2024/02/09 08:29:16;;;;;;;7.07;3.03;;;13.70;99.90;;;;;;5009396;28;20173;-68
2024/02/09 08:31:42;;;;;;;12.87;2.73;;;13.80;99.90;;;;;;5009658;28;20205;-68
2024/02/09 08:34:07;;;;;;;9.50;3.40;;;13.80;99.90;;;;;;5018151;28;20200;-68
2024/02/09 08:36:33;;;;;;;14.63;6.70;;;13.80;99.90;;;;;;5015274;28;20239;-68
2024/02/09 08:38:58;;;;;;;8.53;4.17;;;13.80;99.90;;;;;;5015554;28;20195;-68
2024/02/09 08:41:24;;;;;;;10.23;3.63;;;13.90;99.90;;;;;;5014364;28;20209;-68
2024/02/09 08:43:50;;;;;;;8.90;3.17;;;13.90;99.90;;;;;;5012103;28;20698;-68
2024/02/09 08:46:16;;;;;;;6.33;3.03;;;13.90;99.90;;;;;;5012431;28;20459;-68
2024/02/09 08:48:41;;;;;;;7.20;3.30;;;13.90;99.90;;;;;;5010235;28;20188;-68
2024/02/09 08:51:07;;;;;;;10.73;3.30;;;14.00;99.90;;;;;;5014606;28;20202;-68
2024/02/09 08:53:34;;;;;;;7.13;2.80;;;14.00;99.90;;;;;;5009919;28;20230;-68
2024/02/09 08:56:00;;;;;;;13.73;3.03;;;14.00;99.90;;;;;;5016831;28;20428;-68
2024/02/09 08:58:25;;;;;;;8.20;2.70;;;14.10;99.90;;;;;;5009890;28;22552;-70
2024/02/09 09:00:51;;;;;;;7.63;2.83;;;14.10;99.90;;;;;;5014186;28;20457;-68
2024/02/09 09:03:17;;;;;;;7.17;4.13;;;14.20;99.90;;;;;;5014819;28;20184;-68
2024/02/09 09:05:47;;;;;;;12.60;3.37;;;14.10;99.90;;;;;;5013927;28;20572;-68
2024/02/09 09:08:13;;;;;;;10.27;3.57;;;14.20;99.90;;;;;;5013363;28;20435;-68
2024/02/09 09:10:39;;;;;;;6.23;3.87;;;14.20;99.90;;;;;;5015879;28;20934;-68
2024/02/09 09:13:10;;;;;;;7.47;3.70;;;14.30;99.90;;;;;;5017172;28;20423;-68
2024/02/09 09:15:41;;;;;;;6.37;3.13;;;14.30;99.90;;;;;;5018125;28;20199;-68
2024/02/09 09:18:06;;;;;;;7.30;3.00;;;14.40;99.90;;;;;;5017232;28;20417;-68
2024/02/09 09:20:34;;;;;;;5.87;3.00;;;14.40;99.90;;;;;;5014809;28;20522;-68
2024/02/09 09:23:01;;;;;;;6.40;3.03;;;14.50;99.90;;;;;;5013417;28;20639;-68
2024/02/09 09:25:30;;;;;;;6.53;3.00;;;14.60;99.90;;;;;;5012414;28;20467;-68
2024/02/09 09:27:57;;;;;;;6.10;3.20;;;14.70;99.90;;;;;;5013833;28;20469;-68
2024/02/09 09:30:23;;;;;;;7.97;3.90;;;14.80;99.90;;;;;;5012806;28;20819;-68
2024/02/09 09:32:49;;;;;;;6.80;4.00;;;14.80;99.90;;;;;;5014750;28;20499;-68
2024/02/09 09:35:15;;;;;;;4.30;3.03;;;14.80;99.90;;;;;;5012254;28;20546;-68
2024/02/09 09:37:41;;;;;;;7.17;2.53;;;14.90;99.90;;;;;;5013420;28;20234;-68
2024/02/09 09:40:08;;;;;;;7.60;4.33;;;15.00;99.90;;;;;;5015401;28;20199;-68
2024/02/09 09:42:35;;;;;;;7.77;2.90;;;15.10;99.90;;;;;;5012133;28;20530;-68
2024/02/09 09:45:07;;;;;;;14.03;3.47;;;15.10;99.90;;;;;;5020072;28;20427;-68
2024/02/09 09:47:33;;;;;;;8.70;3.60;;;15.20;99.90;;;;;;5010327;28;21037;-68
2024/02/09 09:50:08;;;;;;;7.10;3.27;;;15.20;99.90;;;;;;5017052;28;21011;-68
2024/02/09 09:52:39;;;;;;;5.40;3.33;;;15.20;99.90;;;;;;5018544;28;20419;-68
2024/02/09 09:55:05;;;;;;;10.73;4.03;;;15.40;99.90;;;;;;5018562;28;20432;-68
2024/02/09 09:57:31;;;;;;;6.67;3.50;;;15.30;99.90;;;;;;5016279;28;20485;-68
2024/02/09 09:59:57;;;;;;;7.57;3.70;;;15.30;99.90;;;;;;5018372;28;20408;-68
2024/02/09 10:02:22;;;;;;;7.33;3.30;;;15.30;99.90;;;;;;5017350;28;20192;-68
2024/02/09 10:04:48;;;;;;;7.17;3.37;;;15.40;99.90;;;;;;5013319;28;20328;-68
2024/02/09 10:07:15;;;;;;;6.80;3.37;;;15.50;99.90;;;;;;5013022;28;20224;-68
2024/02/09 10:09:42;;;;;;;7.00;3.03;;;15.40;99.90;;;;;;5016118;28;20275;-68
2024/02/09 10:12:12;;;;;;;8.83;3.80;;;15.50;99.90;;;;;;5017629;28;20471;-68
2024/02/09 10:14:41;;;;;;;8.13;3.00;;;15.50;99.90;;;;;;5012054;28;20493;-68
2024/02/09 10:17:11;;;;;;;11.70;3.40;;;15.50;99.90;;;;;;5020382;28;20445;-69
2024/02/09 10:19:39;;;;;;;8.90;2.90;;;15.60;99.90;;;;;;5014908;28;20415;-68
2024/02/09 10:22:05;;;;;;;5.33;2.87;;;15.50;99.90;;;;;;5019364;28;20463;-68
2024/02/09 10:24:31;;;;;;;6.20;3.03;;;15.60;99.90;;;;;;5015323;28;20550;-68
2024/02/09 10:26:57;;;;;;;5.90;3.00;;;15.60;99.90;;;;;;5015365;28;20477;-68
2024/02/09 10:29:25;;;;;;;4.73;2.90;;;15.70;99.90;;;;;;5017095;28;20423;-68
2024/02/09 10:31:55;;;;;;;7.03;2.60;;;15.70;99.90;;;;;;5019075;28;20177;-68
2024/02/09 10:34:25;;;;;;;9.00;3.30;;;15.80;99.90;;;;;;5014311;28;20451;-68
2024/02/09 10:36:54;;;;;;;8.70;3.83;;;15.90;99.90;;;;;;5014284;28;20839;-68
2024/02/09 10:39:19;;;;;;;4.80;2.60;;;15.90;99.90;;;;;;5014359;28;20504;-68
2024/02/09 10:41:47;;;;;;;4.57;2.57;;;15.90;99.90;;;;;;5018910;28;20427;-68
2024/02/09 10:44:15;;;;;;;5.60;2.90;;;15.70;99.90;;;;;;5015899;28;20204;-68
2024/02/09 10:46:42;;;;;;;5.23;2.70;;;15.70;99.90;;;;;;5018984;28;20524;-68
2024/02/09 10:49:09;;;;;;;5.87;3.57;;;15.70;99.90;;;;;;5018986;28;20578;-68
2024/02/09 10:51:36;;;;;;;6.53;2.97;;;15.70;99.90;;;;;;5012804;28;20431;-68
2024/02/09 10:54:24;;;;;;;12.10;3.63;;;15.60;99.90;;;;;;5016026;28;20858;-68
2024/02/09 10:56:51;;;;;;;5.37;3.27;;;15.60;99.90;;;;;;5014329;28;20435;-68
2024/02/09 10:59:20;;;;;;;6.33;3.40;;;15.60;99.90;;;;;;5017279;28;20984;-68
2024/02/09 11:01:46;;;;;;;6.30;3.13;;;15.70;99.90;;;;;;5017337;28;20576;-68
2024/02/09 11:04:12;;;;;;;7.13;2.60;;;15.70;99.90;;;;;;5016183;28;20436;-68
2024/02/09 11:06:38;;;;;;;3.43;2.60;;;15.70;99.90;;;;;;5010375;28;20575;-68
2024/02/09 11:09:04;;;;;;;5.43;2.80;;;15.50;99.90;;;;;;5015028;28;20177;-68
2024/02/09 11:11:33;;;;;;;5.17;2.63;;;15.60;99.90;;;;;;5016060;28;20901;-68
2024/02/09 11:14:05;;;;;;;4.90;3.40;;;15.60;99.90;;;;;;5019672;28;20941;-68
2024/02/09 11:16:30;;;;;;;6.50;2.83;;;15.70;99.90;;;;;;5015678;28;20443;-68
2024/02/09 11:18:56;;;;;;;8.47;3.80;;;15.60;99.90;;;;;;5019876;28;20512;-68
2024/02/09 11:21:21;;;;;;;7.67;3.80;;;15.60;99.90;;;;;;5019673;28;20197;-68
2024/02/09 11:23:48;;;;;;;5.50;2.70;;;15.50;99.90;;;;;;5013193;28;20196;-68
2024/02/09 11:26:15;;;;;;;4.60;2.70;;;15.50;99.90;;;;;;5021863;28;20205;-68
2024/02/09 11:28:41;;;;;;;5.10;3.10;;;15.40;99.90;;;;;;5014463;28;20424;-68
2024/02/09 11:31:10;;;;;;;5.33;2.70;;;15.40;99.90;;;;;;5017265;28;20450;-68
2024/02/09 11:33:41;;;;;;;4.80;3.30;;;15.50;99.90;;;;;;5009666;28;20669;-68
2024/02/09 11:36:07;;;;;;;7.63;3.37;;;15.40;99.90;;;;;;5013329;28;20411;-68
2024/02/09 11:38:33;;;;;;;6.90;3.00;;;15.40;99.90;;;;;;5015420;28;20430;-68
2024/02/09 11:40:59;;;;;;;7.10;4.27;;;15.40;99.90;;;;;;5015174;28;20187;-68
2024/02/09 11:43:28;;;;;;;6.33;3.30;;;15.40;99.90;;;;;;5015178;28;20439;-68
2024/02/09 11:45:56;;;;;;;8.23;3.60;;;15.20;99.90;;;;;;5014916;28;20275;-68
2024/02/09 11:48:23;;;;;;;6.43;3.30;;;15.10;99.90;;;;;;5009003;28;20425;-68
2024/02/09 11:50:49;;;;;;;7.57;2.97;;;15.20;99.90;;;;;;5012878;28;20422;-68
2024/02/09 11:53:14;;;;;;;5.90;2.97;;;15.20;99.90;;;;;;5019852;28;20414;-68
2024/02/09 11:55:42;;;;;;;5.93;3.53;;;15.10;99.90;;;;;;5012642;28;20419;-68
2024/02/09 11:58:09;;;;;;;5.27;2.83;;;15.10;99.90;;;;;;5016189;28;20192;-68
2024/02/09 12:00:36;;;;;;;9.00;4.00;;;15.10;99.90;;;;;;5013270;28;20423;-67
2024/02/09 12:03:03;;;;;;;7.83;3.10;;;15.10;99.90;;;;;;5013694;28;20428;-68
2024/02/09 12:05:29;;;;;;;6.63;3.23;;;15.20;99.90;;;;;;5016731;28;20436;-67
2024/02/09 12:07:54;;;;;;;6.20;2.43;;;15.20;99.90;;;;;;5013202;28;20482;-68
2024/02/09 12:10:20;;;;;;;10.43;3.70;;;15.20;99.90;;;;;;5012718;28;20798;-68
2024/02/09 12:12:49;;;;;;;5.90;3.27;;;15.30;99.90;;;;;;5010876;28;20231;-68
2024/02/09 12:15:18;;;;;;;6.90;2.80;;;15.30;99.90;;;;;;5020105;28;20447;-68
2024/02/09 12:17:58;;;;;;;5.43;2.80;;;15.50;99.90;;;;;;5013170;28;20439;-68
2024/02/09 12:20:24;;;;;;;8.63;3.77;;;15.70;99.90;;;;;;5011281;28;20432;-67
2024/02/09 12:22:50;;;;;;;6.00;3.37;;;15.90;99.90;;;;;;5014945;28;21147;-68
2024/02/09 12:25:16;;;;;;;5.10;3.47;;;16.10;99.90;;;;;;5016127;28;20232;-67
2024/02/09 12:27:42;;;;;;;6.97;3.50;;;16.40;99.90;;;;;;5017215;28;20220;-68
2024/02/09 12:30:09;;;;;;;10.60;3.30;;;16.70;99.90;;;;;;5010627;28;20819;-67
2024/02/09 12:32:36;;;;;;;7.83;2.90;;;16.80;99.90;;;;;;5012786;28;20180;-68
2024/02/09 12:35:02;;;;;;;4.80;3.13;;;16.90;99.90;;;;;;5013653;28;20466;-68
2024/02/09 12:37:28;;;;;;;5.27;2.60;;;16.80;99.90;;;;;;5018238;28;20423;-69
2024/02/09 12:39:53;;;;;;;7.47;2.93;;;16.80;99.90;;;;;;5010931;28;20427;-69
2024/02/09 12:42:22;;;;;;;9.07;3.80;;;16.80;99.90;;;;;;5016702;28;20216;-69
2024/02/09 12:44:51;;;;;;;5.77;2.83;;;16.90;99.90;;;;;;5013824;28;20286;-69
2024/02/09 12:47:17;;;;;;;11.10;3.63;;;16.90;99.90;;;;;;5015682;28;20562;-69
2024/02/09 12:49:43;;;;;;;4.63;2.40;;;16.80;99.90;;;;;;5012766;28;20523;-68
2024/02/09 12:52:11;;;;;;;5.33;2.60;;;16.80;99.90;;;;;;5014379;28;20181;-68
2024/02/09 12:54:37;;;;;;;5.20;2.73;;;16.90;99.90;;;;;;5016966;28;20431;-69
2024/02/09 12:57:06;;;;;;;8.13;3.27;;;16.90;99.90;;;;;;5018973;28;20435;-68
2024/02/09 12:59:34;;;;;;;6.80;3.30;;;16.90;99.90;;;;;;5013679;28;20422;-68
2024/02/09 13:02:07;;;;;;;7.73;2.93;;;16.80;99.90;;;;;;5015662;28;20430;-68
2024/02/09 13:04:34;;;;;;;6.60;3.10;;;16.60;99.90;;;;;;5016272;28;20441;-68
2024/02/09 13:07:00;;;;;;;8.80;2.73;;;16.50;99.90;;;;;;5012658;28;20552;-68
2024/02/09 13:09:26;;;;;;;8.63;2.80;;;16.50;99.90;;;;;;5012000;28;20425;-68
2024/02/09 13:11:52;;;;;;;6.23;3.00;;;16.50;99.90;;;;;;5016428;28;20412;-68
2024/02/09 13:14:19;;;;;;;4.40;2.60;;;16.60;99.90;;;;;;5014126;28;20199;-68
2024/02/09 13:16:48;;;;;;;5.70;2.60;;;16.50;99.90;;;;;;5013158;28;20595;-68
2024/02/09 13:19:18;;;;;;;4.50;2.80;;;16.50;99.90;;;;;;5014398;28;20506;-68
2024/02/09 13:21:54;;;;;;;3.53;2.30;;;16.80;99.90;;;;;;5013774;28;20438;-68
2024/02/09 13:24:23;;;;;;;6.63;3.10;;;17.00;99.90;;;;;;5018377;28;20984;-68
2024/02/09 13:26:51;;;;;;;3.77;2.70;;;17.00;99.90;;;;;;5013516;28;20460;-68
2024/02/09 13:29:26;;;;;;;6.27;2.40;;;17.00;99.90;;;;;;5014313;28;20411;-69
2024/02/09 13:31:53;;;;;;;6.20;2.67;;;17.00;99.90;;;;;;5013988;28;20435;-68
2024/02/09 13:34:19;;;;;;;6.10;3.43;;;17.10;99.90;;;;;;5016916;28;20497;-69
2024/02/09 13:36:44;;;;;;;6.13;2.83;;;17.00;99.90;;;;;;5017322;28;21108;-68
2024/02/09 13:39:10;;;;;;;5.07;2.47;;;16.90;99.90;;;;;;5017250;28;20183;-68
2024/02/09 13:41:36;;;;;;;4.97;3.30;;;16.90;99.90;;;;;;5021894;28;20176;-68
2024/02/09 13:44:02;;;;;;;4.63;2.43;;;16.90;99.90;;;;;;5015629;28;20287;-69
2024/02/09 13:46:28;;;;;;;4.40;2.40;;;17.00;99.90;;;;;;5021905;28;20477;-69
2024/02/09 13:48:54;;;;;;;4.73;2.57;;;17.00;99.90;;;;;;5011804;28;20491;-68
2024/02/09 13:51:21;;;;;;;6.23;3.03;;;17.00;99.90;;;;;;5019048;28;20646;-68
2024/02/09 13:53:49;;;;;;;4.73;3.10;;;17.00;99.90;;;;;;5013906;28;20283;-68
2024/02/09 13:56:15;;;;;;;7.93;3.10;;;17.00;99.90;;;;;;5017072;28;20841;-69
2024/02/09 13:58:45;;;;;;;6.00;2.40;;;16.80;99.90;;;;;;5012744;28;20416;-69
2024/02/09 14:01:11;;;;;;;4.63;2.80;;;16.70;99.90;;;;;;5016224;28;20271;-69
2024/02/09 14:03:37;;;;;;;5.93;2.73;;;16.70;99.90;;;;;;5019850;28;20431;-68
2024/02/09 14:06:02;;;;;;;6.77;2.87;;;16.60;99.90;;;;;;5018960;28;20534;-68
2024/02/09 14:08:28;;;;;;;7.30;3.50;;;16.50;99.90;;;;;;5016586;28;20192;-68
2024/02/09 14:10:54;;;;;;;5.83;2.73;;;16.30;99.90;;;;;;5015601;28;20192;-68
2024/02/09 14:13:20;;;;;;;7.17;3.27;;;16.30;99.90;;;;;;5022200;28;20180;-68
2024/02/09 14:15:48;;;;;;;7.20;3.33;;;16.30;99.90;;;;;;5014596;28;20197;-68
2024/02/09 14:18:13;;;;;;;4.80;3.10;;;16.20;99.90;;;;;;5015122;28;20309;-69
2024/02/09 14:20:40;;;;;;;6.07;2.80;;;16.20;99.90;;;;;;5017907;28;21680;-68
2024/02/09 14:23:06;;;;;;;5.57;2.50;;;16.20;99.90;;;;;;5016554;28;20181;-68
2024/02/09 14:25:32;;;;;;;6.20;2.50;;;16.00;99.90;;;;;;5014738;28;20771;-68
2024/02/09 14:27:57;;;;;;;7.57;3.33;;;16.00;99.90;;;;;;5014257;28;20209;-68